sensor_id;sensor_type;location;lat;lon;timestamp;P1;durP1;ratioP1;P2;durP2;ratioP2
69386;SDS011;56575;48.942;8.404;2023-06-24T00:02:05;6.67;;;3.70;;
69386;SDS011;56575;48.942;8.404;2023-06-24T00:04:30;5.60;;;3.78;;
69386;SDS011;56575;48.942;8.404;2023-06-24T00:06:56;7.77;;;3.70;;
69386;SDS011;56575;48.942;8.404;2023-06-24T00:09:25;5.57;;;3.58;;
69386;SDS011;56575;48.942;8.404;2023-06-24T00:11:52;5.15;;;3.47;;
69386;SDS011;56575;48.942;8.404;2023-06-24T00:14:21;6.63;;;3.55;;
69386;SDS011;56575;48.942;8.404;2023-06-24T00:16:49;5.67;;;3.73;;
69386;SDS011;56575;48.942;8.404;2023-06-24T00:19:18;5.95;;;3.90;;
69386;SDS011;56575;48.942;8.404;2023-06-24T00:21:44;7.13;;;3.92;;
69386;SDS011;56575;48.942;8.404;2023-06-24T00:24:09;5.67;;;3.87;;
69386;SDS011;56575;48.942;8.404;2023-06-24T00:26:35;5.63;;;3.90;;
69386;SDS011;56575;48.942;8.404;2023-06-24T00:29:00;5.50;;;3.75;;
69386;SDS011;56575;48.942;8.404;2023-06-24T00:31:26;5.87;;;4.07;;
69386;SDS011;56575;48.942;8.404;2023-06-24T00:33:51;5.73;;;3.60;;
69386;SDS011;56575;48.942;8.404;2023-06-24T00:36:17;5.30;;;3.90;;
69386;SDS011;56575;48.942;8.404;2023-06-24T00:38:43;4.90;;;3.70;;
69386;SDS011;56575;48.942;8.404;2023-06-24T00:41:08;5.80;;;3.93;;
69386;SDS011;56575;48.942;8.404;2023-06-24T00:43:34;5.97;;;3.75;;
69386;SDS011;56575;48.942;8.404;2023-06-24T00:46:00;5.32;;;3.70;;
69386;SDS011;56575;48.942;8.404;2023-06-24T00:48:25;5.37;;;3.63;;
69386;SDS011;56575;48.942;8.404;2023-06-24T00:50:51;5.97;;;3.93;;
69386;SDS011;56575;48.942;8.404;2023-06-24T00:53:17;7.15;;;4.00;;
69386;SDS011;56575;48.942;8.404;2023-06-24T00:55:44;6.30;;;4.28;;
69386;SDS011;56575;48.942;8.404;2023-06-24T00:58:10;7.97;;;4.03;;
69386;SDS011;56575;48.942;8.404;2023-06-24T01:00:41;6.03;;;3.80;;
69386;SDS011;56575;48.942;8.404;2023-06-24T01:03:08;7.30;;;3.90;;
69386;SDS011;56575;48.942;8.404;2023-06-24T01:05:35;6.57;;;3.85;;
69386;SDS011;56575;48.942;8.404;2023-06-24T01:08:01;7.40;;;3.53;;
69386;SDS011;56575;48.942;8.404;2023-06-24T01:10:27;5.85;;;3.63;;
69386;SDS011;56575;48.942;8.404;2023-06-24T01:12:52;5.37;;;3.60;;
69386;SDS011;56575;48.942;8.404;2023-06-24T01:15:18;7.05;;;3.95;;
69386;SDS011;56575;48.942;8.404;2023-06-24T01:17:54;9.27;;;3.83;;
69386;SDS011;56575;48.942;8.404;2023-06-24T01:20:27;7.30;;;4.13;;
69386;SDS011;56575;48.942;8.404;2023-06-24T01:34:20;6.30;;;3.92;;
69386;SDS011;56575;48.942;8.404;2023-06-24T01:39:46;8.40;;;4.15;;
69386;SDS011;56575;48.942;8.404;2023-06-24T01:42:14;6.55;;;4.10;;
69386;SDS011;56575;48.942;8.404;2023-06-24T01:44:42;6.75;;;4.10;;
69386;SDS011;56575;48.942;8.404;2023-06-24T01:47:09;5.30;;;3.90;;
69386;SDS011;56575;48.942;8.404;2023-06-24T01:49:38;6.00;;;4.10;;
69386;SDS011;56575;48.942;8.404;2023-06-24T01:52:07;5.78;;;4.20;;
69386;SDS011;56575;48.942;8.404;2023-06-24T01:54:34;7.28;;;3.88;;
69386;SDS011;56575;48.942;8.404;2023-06-24T01:57:01;7.38;;;4.32;;
69386;SDS011;56575;48.942;8.404;2023-06-24T01:59:28;6.78;;;3.58;;
69386;SDS011;56575;48.942;8.404;2023-06-24T02:01:54;6.63;;;3.77;;
69386;SDS011;56575;48.942;8.404;2023-06-24T02:04:21;6.75;;;4.38;;
69386;SDS011;56575;48.942;8.404;2023-06-24T02:06:49;6.95;;;4.20;;
69386;SDS011;56575;48.942;8.404;2023-06-24T02:09:16;6.50;;;4.43;;
69386;SDS011;56575;48.942;8.404;2023-06-24T02:11:44;6.47;;;4.18;;
69386;SDS011;56575;48.942;8.404;2023-06-24T02:14:10;6.10;;;4.57;;
69386;SDS011;56575;48.942;8.404;2023-06-24T02:16:37;6.65;;;4.38;;
69386;SDS011;56575;48.942;8.404;2023-06-24T02:19:07;7.28;;;3.95;;
69386;SDS011;56575;48.942;8.404;2023-06-24T02:21:34;5.95;;;4.22;;
69386;SDS011;56575;48.942;8.404;2023-06-24T02:24:01;6.43;;;4.03;;
69386;SDS011;56575;48.942;8.404;2023-06-24T02:26:27;6.63;;;4.70;;
69386;SDS011;56575;48.942;8.404;2023-06-24T02:28:53;6.65;;;4.22;;
69386;SDS011;56575;48.942;8.404;2023-06-24T02:31:19;8.70;;;4.87;;
69386;SDS011;56575;48.942;8.404;2023-06-24T02:33:45;7.40;;;4.13;;
69386;SDS011;56575;48.942;8.404;2023-06-24T02:36:11;6.77;;;4.30;;
69386;SDS011;56575;48.942;8.404;2023-06-24T02:38:36;5.90;;;4.00;;
69386;SDS011;56575;48.942;8.404;2023-06-24T02:41:02;6.17;;;4.20;;
69386;SDS011;56575;48.942;8.404;2023-06-24T02:43:29;7.22;;;4.15;;
69386;SDS011;56575;48.942;8.404;2023-06-24T02:45:55;6.80;;;4.50;;
69386;SDS011;56575;48.942;8.404;2023-06-24T02:48:21;8.73;;;4.47;;
69386;SDS011;56575;48.942;8.404;2023-06-24T02:50:47;5.80;;;4.20;;
69386;SDS011;56575;48.942;8.404;2023-06-24T02:53:13;6.40;;;4.13;;
69386;SDS011;56575;48.942;8.404;2023-06-24T02:55:40;9.10;;;4.43;;
69386;SDS011;56575;48.942;8.404;2023-06-24T02:58:06;6.00;;;3.90;;
69386;SDS011;56575;48.942;8.404;2023-06-24T03:00:34;7.88;;;4.28;;
69386;SDS011;56575;48.942;8.404;2023-06-24T03:03:00;6.97;;;4.45;;
69386;SDS011;56575;48.942;8.404;2023-06-24T03:05:28;9.30;;;4.30;;
69386;SDS011;56575;48.942;8.404;2023-06-24T03:07:55;6.50;;;4.55;;
69386;SDS011;56575;48.942;8.404;2023-06-24T03:10:22;6.03;;;4.20;;
69386;SDS011;56575;48.942;8.404;2023-06-24T03:12:49;7.00;;;5.10;;
69386;SDS011;56575;48.942;8.404;2023-06-24T03:15:14;6.97;;;4.00;;
69386;SDS011;56575;48.942;8.404;2023-06-24T03:17:39;6.32;;;4.72;;
69386;SDS011;56575;48.942;8.404;2023-06-24T03:20:05;6.07;;;4.57;;
69386;SDS011;56575;48.942;8.404;2023-06-24T03:22:32;6.80;;;4.40;;
69386;SDS011;56575;48.942;8.404;2023-06-24T03:24:57;7.10;;;4.43;;
69386;SDS011;56575;48.942;8.404;2023-06-24T03:27:23;8.33;;;4.80;;
69386;SDS011;56575;48.942;8.404;2023-06-24T03:29:48;6.25;;;4.45;;
69386;SDS011;56575;48.942;8.404;2023-06-24T03:32:13;6.67;;;4.80;;
69386;SDS011;56575;48.942;8.404;2023-06-24T03:34:39;6.50;;;4.43;;
69386;SDS011;56575;48.942;8.404;2023-06-24T03:37:04;5.93;;;4.07;;
69386;SDS011;56575;48.942;8.404;2023-06-24T03:39:30;6.15;;;4.03;;
69386;SDS011;56575;48.942;8.404;2023-06-24T03:41:55;6.33;;;4.63;;
69386;SDS011;56575;48.942;8.404;2023-06-24T03:44:21;6.90;;;4.43;;
69386;SDS011;56575;48.942;8.404;2023-06-24T03:46:46;5.70;;;4.40;;
69386;SDS011;56575;48.942;8.404;2023-06-24T03:49:11;7.47;;;4.90;;
69386;SDS011;56575;48.942;8.404;2023-06-24T03:51:37;10.00;;;4.40;;
69386;SDS011;56575;48.942;8.404;2023-06-24T03:54:02;5.70;;;4.47;;
69386;SDS011;56575;48.942;8.404;2023-06-24T03:56:28;6.27;;;4.23;;
69386;SDS011;56575;48.942;8.404;2023-06-24T03:58:53;5.78;;;4.32;;
69386;SDS011;56575;48.942;8.404;2023-06-24T04:01:18;6.67;;;4.77;;
69386;SDS011;56575;48.942;8.404;2023-06-24T04:03:44;6.90;;;4.27;;
69386;SDS011;56575;48.942;8.404;2023-06-24T04:06:10;6.70;;;4.70;;
69386;SDS011;56575;48.942;8.404;2023-06-24T04:08:36;7.87;;;4.60;;
69386;SDS011;56575;48.942;8.404;2023-06-24T04:11:04;6.38;;;4.28;;
69386;SDS011;56575;48.942;8.404;2023-06-24T04:13:31;7.82;;;4.40;;
69386;SDS011;56575;48.942;8.404;2023-06-24T04:15:57;8.07;;;4.50;;
69386;SDS011;56575;48.942;8.404;2023-06-24T04:18:22;8.70;;;4.60;;
69386;SDS011;56575;48.942;8.404;2023-06-24T04:20:47;8.97;;;4.83;;
69386;SDS011;56575;48.942;8.404;2023-06-24T04:23:13;7.43;;;4.50;;
69386;SDS011;56575;48.942;8.404;2023-06-24T04:25:39;7.67;;;4.67;;
69386;SDS011;56575;48.942;8.404;2023-06-24T04:28:05;6.47;;;4.40;;
69386;SDS011;56575;48.942;8.404;2023-06-24T04:30:31;7.13;;;4.40;;
69386;SDS011;56575;48.942;8.404;2023-06-24T04:32:57;7.35;;;4.53;;
69386;SDS011;56575;48.942;8.404;2023-06-24T04:35:23;7.43;;;4.67;;
69386;SDS011;56575;48.942;8.404;2023-06-24T04:37:49;6.82;;;4.72;;
69386;SDS011;56575;48.942;8.404;2023-06-24T04:40:16;5.88;;;4.35;;
69386;SDS011;56575;48.942;8.404;2023-06-24T04:42:42;7.75;;;4.50;;
69386;SDS011;56575;48.942;8.404;2023-06-24T04:45:07;7.53;;;4.63;;
69386;SDS011;56575;48.942;8.404;2023-06-24T04:47:33;6.73;;;4.83;;
69386;SDS011;56575;48.942;8.404;2023-06-24T04:49:58;7.37;;;4.80;;
69386;SDS011;56575;48.942;8.404;2023-06-24T04:52:24;7.87;;;4.57;;
69386;SDS011;56575;48.942;8.404;2023-06-24T04:54:49;6.33;;;4.63;;
69386;SDS011;56575;48.942;8.404;2023-06-24T04:57:26;6.95;;;4.50;;
69386;SDS011;56575;48.942;8.404;2023-06-24T04:59:53;6.90;;;4.60;;
69386;SDS011;56575;48.942;8.404;2023-06-24T05:02:19;7.38;;;4.63;;
69386;SDS011;56575;48.942;8.404;2023-06-24T05:04:44;6.97;;;4.33;;
69386;SDS011;56575;48.942;8.404;2023-06-24T05:07:09;6.63;;;4.57;;
69386;SDS011;56575;48.942;8.404;2023-06-24T05:09:35;6.17;;;4.43;;
69386;SDS011;56575;48.942;8.404;2023-06-24T05:12:03;7.00;;;4.78;;
69386;SDS011;56575;48.942;8.404;2023-06-24T05:14:29;7.20;;;4.68;;
69386;SDS011;56575;48.942;8.404;2023-06-24T05:16:55;7.60;;;4.90;;
69386;SDS011;56575;48.942;8.404;2023-06-24T05:19:20;6.77;;;4.47;;
69386;SDS011;56575;48.942;8.404;2023-06-24T05:21:45;6.63;;;4.50;;
69386;SDS011;56575;48.942;8.404;2023-06-24T05:24:11;8.55;;;4.53;;
69386;SDS011;56575;48.942;8.404;2023-06-24T05:26:36;6.57;;;4.27;;
69386;SDS011;56575;48.942;8.404;2023-06-24T05:29:01;6.37;;;4.90;;
69386;SDS011;56575;48.942;8.404;2023-06-24T05:31:28;7.97;;;4.50;;
69386;SDS011;56575;48.942;8.404;2023-06-24T05:33:53;6.27;;;4.53;;
69386;SDS011;56575;48.942;8.404;2023-06-24T05:36:19;6.30;;;4.57;;
69386;SDS011;56575;48.942;8.404;2023-06-24T05:38:44;5.72;;;4.32;;
69386;SDS011;56575;48.942;8.404;2023-06-24T05:41:09;7.87;;;4.47;;
69386;SDS011;56575;48.942;8.404;2023-06-24T05:43:35;6.30;;;4.67;;
69386;SDS011;56575;48.942;8.404;2023-06-24T05:46:00;6.33;;;4.67;;
69386;SDS011;56575;48.942;8.404;2023-06-24T05:48:26;8.10;;;4.60;;
69386;SDS011;56575;48.942;8.404;2023-06-24T05:50:51;5.73;;;4.30;;
69386;SDS011;56575;48.942;8.404;2023-06-24T05:53:16;7.83;;;4.73;;
69386;SDS011;56575;48.942;8.404;2023-06-24T05:55:42;5.93;;;4.10;;
69386;SDS011;56575;48.942;8.404;2023-06-24T05:58:07;6.82;;;4.60;;
69386;SDS011;56575;48.942;8.404;2023-06-24T06:00:33;6.73;;;4.40;;
69386;SDS011;56575;48.942;8.404;2023-06-24T06:02:58;6.50;;;4.67;;
69386;SDS011;56575;48.942;8.404;2023-06-24T06:05:23;6.70;;;4.53;;
69386;SDS011;56575;48.942;8.404;2023-06-24T06:07:49;7.03;;;4.93;;
69386;SDS011;56575;48.942;8.404;2023-06-24T06:10:14;6.95;;;4.72;;
69386;SDS011;56575;48.942;8.404;2023-06-24T06:12:42;6.17;;;4.80;;
69386;SDS011;56575;48.942;8.404;2023-06-24T06:15:08;6.93;;;4.50;;
69386;SDS011;56575;48.942;8.404;2023-06-24T06:17:34;7.18;;;4.95;;
69386;SDS011;56575;48.942;8.404;2023-06-24T06:19:59;7.90;;;4.70;;
69386;SDS011;56575;48.942;8.404;2023-06-24T06:22:25;7.87;;;5.40;;
69386;SDS011;56575;48.942;8.404;2023-06-24T06:24:50;7.78;;;5.68;;
69386;SDS011;56575;48.942;8.404;2023-06-24T06:27:15;7.50;;;5.50;;
69386;SDS011;56575;48.942;8.404;2023-06-24T06:29:41;8.83;;;5.67;;
69386;SDS011;56575;48.942;8.404;2023-06-24T06:32:06;7.80;;;5.20;;
69386;SDS011;56575;48.942;8.404;2023-06-24T06:34:32;9.48;;;5.30;;
69386;SDS011;56575;48.942;8.404;2023-06-24T06:36:57;12.90;;;4.87;;
69386;SDS011;56575;48.942;8.404;2023-06-24T06:39:23;9.33;;;4.90;;
69386;SDS011;56575;48.942;8.404;2023-06-24T06:41:48;7.78;;;4.97;;
69386;SDS011;56575;48.942;8.404;2023-06-24T06:44:14;7.67;;;5.33;;
69386;SDS011;56575;48.942;8.404;2023-06-24T06:46:39;8.43;;;5.20;;
69386;SDS011;56575;48.942;8.404;2023-06-24T06:49:04;6.80;;;5.00;;
69386;SDS011;56575;48.942;8.404;2023-06-24T06:51:30;7.00;;;5.00;;
69386;SDS011;56575;48.942;8.404;2023-06-24T06:53:55;6.93;;;4.60;;
69386;SDS011;56575;48.942;8.404;2023-06-24T06:56:24;7.70;;;5.13;;
69386;SDS011;56575;48.942;8.404;2023-06-24T06:58:50;7.40;;;5.50;;
69386;SDS011;56575;48.942;8.404;2023-06-24T07:01:17;8.40;;;5.33;;
69386;SDS011;56575;48.942;8.404;2023-06-24T07:03:42;8.40;;;5.55;;
69386;SDS011;56575;48.942;8.404;2023-06-24T07:06:08;8.67;;;5.10;;
69386;SDS011;56575;48.942;8.404;2023-06-24T07:08:33;8.65;;;5.47;;
69386;SDS011;56575;48.942;8.404;2023-06-24T07:11:00;9.57;;;5.60;;
69386;SDS011;56575;48.942;8.404;2023-06-24T07:13:26;7.82;;;4.70;;
69386;SDS011;56575;48.942;8.404;2023-06-24T07:15:51;7.67;;;5.37;;
69386;SDS011;56575;48.942;8.404;2023-06-24T07:18:16;6.30;;;4.83;;
69386;SDS011;56575;48.942;8.404;2023-06-24T07:20:42;8.60;;;4.67;;
69386;SDS011;56575;48.942;8.404;2023-06-24T07:23:07;9.63;;;4.73;;
69386;SDS011;56575;48.942;8.404;2023-06-24T07:25:33;8.43;;;5.23;;
69386;SDS011;56575;48.942;8.404;2023-06-24T07:27:59;8.45;;;4.78;;
69386;SDS011;56575;48.942;8.404;2023-06-24T07:30:24;6.03;;;5.00;;
69386;SDS011;56575;48.942;8.404;2023-06-24T07:32:50;6.47;;;4.53;;
69386;SDS011;56575;48.942;8.404;2023-06-24T07:35:15;5.97;;;4.43;;
69386;SDS011;56575;48.942;8.404;2023-06-24T07:37:41;6.77;;;4.80;;
69386;SDS011;56575;48.942;8.404;2023-06-24T07:40:06;7.60;;;4.57;;
69386;SDS011;56575;48.942;8.404;2023-06-24T07:42:33;7.15;;;5.03;;
69386;SDS011;56575;48.942;8.404;2023-06-24T07:44:58;8.10;;;4.60;;
69386;SDS011;56575;48.942;8.404;2023-06-24T07:47:24;5.00;;;3.90;;
69386;SDS011;56575;48.942;8.404;2023-06-24T07:49:49;6.75;;;3.95;;
69386;SDS011;56575;48.942;8.404;2023-06-24T07:52:15;7.00;;;4.00;;
69386;SDS011;56575;48.942;8.404;2023-06-24T07:54:41;9.00;;;4.57;;
69386;SDS011;56575;48.942;8.404;2023-06-24T07:57:06;6.93;;;3.90;;
69386;SDS011;56575;48.942;8.404;2023-06-24T07:59:32;7.70;;;4.30;;
69386;SDS011;56575;48.942;8.404;2023-06-24T08:01:57;5.83;;;4.00;;
69386;SDS011;56575;48.942;8.404;2023-06-24T08:04:22;5.00;;;3.80;;
69386;SDS011;56575;48.942;8.404;2023-06-24T08:06:48;6.33;;;4.07;;
69386;SDS011;56575;48.942;8.404;2023-06-24T08:09:13;5.07;;;3.87;;
69386;SDS011;56575;48.942;8.404;2023-06-24T08:11:41;5.05;;;3.53;;
69386;SDS011;56575;48.942;8.404;2023-06-24T08:14:06;4.87;;;3.70;;
69386;SDS011;56575;48.942;8.404;2023-06-24T08:16:32;5.37;;;3.60;;
69386;SDS011;56575;48.942;8.404;2023-06-24T08:18:57;5.83;;;3.50;;
69386;SDS011;56575;48.942;8.404;2023-06-24T08:21:22;5.30;;;3.53;;
69386;SDS011;56575;48.942;8.404;2023-06-24T08:23:48;5.67;;;3.77;;
69386;SDS011;56575;48.942;8.404;2023-06-24T08:26:15;6.32;;;3.83;;
69386;SDS011;56575;48.942;8.404;2023-06-24T08:28:41;8.18;;;4.00;;
69386;SDS011;56575;48.942;8.404;2023-06-24T08:31:06;5.67;;;3.50;;
69386;SDS011;56575;48.942;8.404;2023-06-24T08:33:31;4.87;;;3.70;;
69386;SDS011;56575;48.942;8.404;2023-06-24T08:35:57;6.30;;;3.73;;
69386;SDS011;56575;48.942;8.404;2023-06-24T08:38:22;6.53;;;3.95;;
69386;SDS011;56575;48.942;8.404;2023-06-24T08:40:48;4.90;;;3.70;;
69386;SDS011;56575;48.942;8.404;2023-06-24T08:43:14;5.68;;;3.72;;
69386;SDS011;56575;48.942;8.404;2023-06-24T08:45:40;5.33;;;3.73;;
69386;SDS011;56575;48.942;8.404;2023-06-24T08:48:05;6.60;;;3.67;;
69386;SDS011;56575;48.942;8.404;2023-06-24T08:50:33;4.32;;;3.00;;
69386;SDS011;56575;48.942;8.404;2023-06-24T08:53:01;4.32;;;3.20;;
69386;SDS011;56575;48.942;8.404;2023-06-24T08:55:28;4.57;;;2.90;;
69386;SDS011;56575;48.942;8.404;2023-06-24T08:57:57;5.40;;;3.25;;
69386;SDS011;56575;48.942;8.404;2023-06-24T09:00:23;4.10;;;3.13;;
69386;SDS011;56575;48.942;8.404;2023-06-24T09:02:49;3.87;;;2.90;;
69386;SDS011;56575;48.942;8.404;2023-06-24T09:05:14;4.90;;;3.28;;
69386;SDS011;56575;48.942;8.404;2023-06-24T09:07:40;4.40;;;2.97;;
69386;SDS011;56575;48.942;8.404;2023-06-24T09:10:05;4.20;;;3.17;;
69386;SDS011;56575;48.942;8.404;2023-06-24T09:12:31;4.20;;;3.05;;
69386;SDS011;56575;48.942;8.404;2023-06-24T09:14:57;4.33;;;3.23;;
69386;SDS011;56575;48.942;8.404;2023-06-24T09:17:23;3.70;;;2.70;;
69386;SDS011;56575;48.942;8.404;2023-06-24T09:19:49;4.43;;;2.93;;
69386;SDS011;56575;48.942;8.404;2023-06-24T09:22:15;5.45;;;2.67;;
69386;SDS011;56575;48.942;8.404;2023-06-24T09:24:45;6.45;;;3.47;;
69386;SDS011;56575;48.942;8.404;2023-06-24T09:27:12;5.37;;;3.00;;
69386;SDS011;56575;48.942;8.404;2023-06-24T09:29:39;5.18;;;2.88;;
69386;SDS011;56575;48.942;8.404;2023-06-24T09:32:05;4.18;;;2.75;;
69386;SDS011;56575;48.942;8.404;2023-06-24T09:34:31;5.35;;;3.20;;
69386;SDS011;56575;48.942;8.404;2023-06-24T09:36:57;6.30;;;3.20;;
69386;SDS011;56575;48.942;8.404;2023-06-24T09:39:24;5.50;;;3.15;;
69386;SDS011;56575;48.942;8.404;2023-06-24T09:41:56;4.30;;;3.03;;
69386;SDS011;56575;48.942;8.404;2023-06-24T09:44:23;7.32;;;3.60;;
69386;SDS011;56575;48.942;8.404;2023-06-24T09:46:48;4.70;;;3.28;;
69386;SDS011;56575;48.942;8.404;2023-06-24T09:49:14;4.13;;;3.10;;
69386;SDS011;56575;48.942;8.404;2023-06-24T09:51:43;5.23;;;3.70;;
69386;SDS011;56575;48.942;8.404;2023-06-24T09:54:11;4.60;;;3.22;;
69386;SDS011;56575;48.942;8.404;2023-06-24T09:56:39;5.18;;;3.33;;
69386;SDS011;56575;48.942;8.404;2023-06-24T09:59:09;4.20;;;3.00;;
69386;SDS011;56575;48.942;8.404;2023-06-24T10:01:38;3.70;;;2.63;;
69386;SDS011;56575;48.942;8.404;2023-06-24T10:04:05;4.53;;;3.50;;
69386;SDS011;56575;48.942;8.404;2023-06-24T10:06:31;4.47;;;3.22;;
69386;SDS011;56575;48.942;8.404;2023-06-24T10:08:57;5.53;;;3.47;;
69386;SDS011;56575;48.942;8.404;2023-06-24T10:11:23;4.53;;;3.25;;
69386;SDS011;56575;48.942;8.404;2023-06-24T10:13:49;4.23;;;2.70;;
69386;SDS011;56575;48.942;8.404;2023-06-24T10:16:15;5.00;;;2.80;;
69386;SDS011;56575;48.942;8.404;2023-06-24T10:18:41;4.80;;;3.00;;
69386;SDS011;56575;48.942;8.404;2023-06-24T10:21:09;5.20;;;3.00;;
69386;SDS011;56575;48.942;8.404;2023-06-24T10:26:11;4.18;;;2.60;;
69386;SDS011;56575;48.942;8.404;2023-06-24T10:34:20;3.78;;;2.80;;
69386;SDS011;56575;48.942;8.404;2023-06-24T10:45:34;3.55;;;2.67;;
69386;SDS011;56575;48.942;8.404;2023-06-24T10:47:52;3.38;;;2.50;;
69386;SDS011;56575;48.942;8.404;2023-06-24T10:50:21;4.30;;;3.17;;
69386;SDS011;56575;48.942;8.404;2023-06-24T10:52:49;5.25;;;3.10;;
69386;SDS011;56575;48.942;8.404;2023-06-24T10:55:20;3.58;;;2.80;;
69386;SDS011;56575;48.942;8.404;2023-06-24T10:57:47;4.30;;;2.80;;
69386;SDS011;56575;48.942;8.404;2023-06-24T11:00:13;3.10;;;2.70;;
69386;SDS011;56575;48.942;8.404;2023-06-24T11:02:39;4.53;;;3.05;;
69386;SDS011;56575;48.942;8.404;2023-06-24T11:05:05;4.00;;;3.10;;
69386;SDS011;56575;48.942;8.404;2023-06-24T11:07:31;4.07;;;3.10;;
69386;SDS011;56575;48.942;8.404;2023-06-24T11:10:03;3.57;;;2.97;;
69386;SDS011;56575;48.942;8.404;2023-06-24T11:12:34;4.85;;;3.00;;
69386;SDS011;56575;48.942;8.404;2023-06-24T11:15:01;4.38;;;2.85;;
69386;SDS011;56575;48.942;8.404;2023-06-24T11:17:28;4.55;;;3.15;;
69386;SDS011;56575;48.942;8.404;2023-06-24T11:19:54;3.93;;;3.20;;
69386;SDS011;56575;48.942;8.404;2023-06-24T11:22:21;4.13;;;3.17;;
69386;SDS011;56575;48.942;8.404;2023-06-24T11:24:47;4.38;;;3.05;;
69386;SDS011;56575;48.942;8.404;2023-06-24T11:27:13;3.38;;;3.08;;
69386;SDS011;56575;48.942;8.404;2023-06-24T11:29:38;3.10;;;2.63;;
69386;SDS011;56575;48.942;8.404;2023-06-24T11:32:06;4.00;;;2.90;;
69386;SDS011;56575;48.942;8.404;2023-06-24T11:34:32;4.18;;;2.95;;
69386;SDS011;56575;48.942;8.404;2023-06-24T11:36:57;3.97;;;2.83;;
69386;SDS011;56575;48.942;8.404;2023-06-24T11:39:27;5.80;;;2.90;;
69386;SDS011;56575;48.942;8.404;2023-06-24T11:41:53;3.10;;;2.80;;
69386;SDS011;56575;48.942;8.404;2023-06-24T11:44:23;3.75;;;2.92;;
69386;SDS011;56575;48.942;8.404;2023-06-24T11:46:49;4.50;;;3.30;;
69386;SDS011;56575;48.942;8.404;2023-06-24T11:49:15;3.03;;;2.67;;
69386;SDS011;56575;48.942;8.404;2023-06-24T11:51:48;3.20;;;2.70;;
69386;SDS011;56575;48.942;8.404;2023-06-24T11:54:18;3.30;;;2.60;;
69386;SDS011;56575;48.942;8.404;2023-06-24T11:56:54;3.67;;;2.90;;
69386;SDS011;56575;48.942;8.404;2023-06-24T11:59:20;4.43;;;2.80;;
69386;SDS011;56575;48.942;8.404;2023-06-24T12:01:52;4.07;;;2.58;;
69386;SDS011;56575;48.942;8.404;2023-06-24T12:04:19;3.50;;;2.63;;
69386;SDS011;56575;48.942;8.404;2023-06-24T12:06:45;3.15;;;2.60;;
69386;SDS011;56575;48.942;8.404;2023-06-24T12:09:11;5.00;;;2.70;;
69386;SDS011;56575;48.942;8.404;2023-06-24T12:11:36;4.60;;;2.70;;
69386;SDS011;56575;48.942;8.404;2023-06-24T12:14:02;4.30;;;3.10;;
69386;SDS011;56575;48.942;8.404;2023-06-24T12:16:29;3.35;;;2.70;;
69386;SDS011;56575;48.942;8.404;2023-06-24T12:18:54;4.20;;;2.97;;
69386;SDS011;56575;48.942;8.404;2023-06-24T12:21:20;3.75;;;2.92;;
69386;SDS011;56575;48.942;8.404;2023-06-24T12:23:46;3.10;;;2.80;;
69386;SDS011;56575;48.942;8.404;2023-06-24T12:26:11;3.83;;;2.80;;
69386;SDS011;56575;48.942;8.404;2023-06-24T12:28:37;2.90;;;2.60;;
69386;SDS011;56575;48.942;8.404;2023-06-24T12:31:02;3.43;;;2.87;;
69386;SDS011;56575;48.942;8.404;2023-06-24T12:33:28;3.90;;;2.97;;
69386;SDS011;56575;48.942;8.404;2023-06-24T12:35:55;4.30;;;2.80;;
69386;SDS011;56575;48.942;8.404;2023-06-24T12:38:20;4.03;;;3.30;;
69386;SDS011;56575;48.942;8.404;2023-06-24T12:40:46;3.40;;;2.90;;
69386;SDS011;56575;48.942;8.404;2023-06-24T12:43:13;3.95;;;2.97;;
69386;SDS011;56575;48.942;8.404;2023-06-24T12:45:38;3.53;;;2.90;;
69386;SDS011;56575;48.942;8.404;2023-06-24T12:48:04;4.30;;;3.30;;
69386;SDS011;56575;48.942;8.404;2023-06-24T12:50:29;4.00;;;2.92;;
69386;SDS011;56575;48.942;8.404;2023-06-24T12:52:58;4.18;;;2.60;;
69386;SDS011;56575;48.942;8.404;2023-06-24T12:55:23;3.70;;;2.83;;
69386;SDS011;56575;48.942;8.404;2023-06-24T12:57:48;2.93;;;2.50;;
69386;SDS011;56575;48.942;8.404;2023-06-24T13:00:14;4.25;;;2.70;;
69386;SDS011;56575;48.942;8.404;2023-06-24T13:02:40;3.43;;;2.63;;
69386;SDS011;56575;48.942;8.404;2023-06-24T13:05:05;3.42;;;2.78;;
69386;SDS011;56575;48.942;8.404;2023-06-24T13:07:31;3.43;;;2.80;;
69386;SDS011;56575;48.942;8.404;2023-06-24T13:09:56;3.33;;;2.93;;
69386;SDS011;56575;48.942;8.404;2023-06-24T13:12:22;3.42;;;2.80;;
69386;SDS011;56575;48.942;8.404;2023-06-24T13:14:47;3.57;;;2.83;;
69386;SDS011;56575;48.942;8.404;2023-06-24T13:17:13;3.40;;;2.60;;
69386;SDS011;56575;48.942;8.404;2023-06-24T13:19:38;3.58;;;2.80;;
69386;SDS011;56575;48.942;8.404;2023-06-24T13:22:03;4.07;;;3.00;;
69386;SDS011;56575;48.942;8.404;2023-06-24T13:24:29;14.77;;;3.70;;
69386;SDS011;56575;48.942;8.404;2023-06-24T13:26:54;12.17;;;3.60;;
69386;SDS011;56575;48.942;8.404;2023-06-24T13:29:20;21.50;;;4.95;;
69386;SDS011;56575;48.942;8.404;2023-06-24T13:31:46;8.07;;;3.00;;
69386;SDS011;56575;48.942;8.404;2023-06-24T13:34:11;3.95;;;2.70;;
69386;SDS011;56575;48.942;8.404;2023-06-24T13:36:37;4.33;;;3.00;;
69386;SDS011;56575;48.942;8.404;2023-06-24T13:39:04;4.97;;;3.03;;
69386;SDS011;56575;48.942;8.404;2023-06-24T13:41:30;3.60;;;2.80;;
69386;SDS011;56575;48.942;8.404;2023-06-24T13:44:00;3.75;;;3.00;;
69386;SDS011;56575;48.942;8.404;2023-06-24T13:46:28;4.40;;;3.13;;
69386;SDS011;56575;48.942;8.404;2023-06-24T13:48:54;3.72;;;2.80;;
69386;SDS011;56575;48.942;8.404;2023-06-24T13:51:21;5.75;;;2.65;;
69386;SDS011;56575;48.942;8.404;2023-06-24T13:53:50;3.70;;;2.90;;
69386;SDS011;56575;48.942;8.404;2023-06-24T13:56:17;4.15;;;2.65;;
69386;SDS011;56575;48.942;8.404;2023-06-24T13:58:44;4.18;;;3.10;;
69386;SDS011;56575;48.942;8.404;2023-06-24T14:01:10;4.97;;;2.77;;
69386;SDS011;56575;48.942;8.404;2023-06-24T14:03:36;4.53;;;2.67;;
69386;SDS011;56575;48.942;8.404;2023-06-24T14:06:02;4.03;;;3.10;;
69386;SDS011;56575;48.942;8.404;2023-06-24T14:08:28;4.43;;;3.00;;
69386;SDS011;56575;48.942;8.404;2023-06-24T14:10:55;3.88;;;3.05;;
69386;SDS011;56575;48.942;8.404;2023-06-24T14:13:21;3.70;;;3.03;;
69386;SDS011;56575;48.942;8.404;2023-06-24T14:15:46;5.70;;;3.30;;
69386;SDS011;56575;48.942;8.404;2023-06-24T14:18:12;5.40;;;3.03;;
69386;SDS011;56575;48.942;8.404;2023-06-24T14:20:37;4.27;;;3.17;;
69386;SDS011;56575;48.942;8.404;2023-06-24T14:23:03;4.87;;;2.87;;
69386;SDS011;56575;48.942;8.404;2023-06-24T14:25:29;4.95;;;3.13;;
69386;SDS011;56575;48.942;8.404;2023-06-24T14:27:55;5.20;;;3.07;;
69386;SDS011;56575;48.942;8.404;2023-06-24T14:30:20;4.80;;;3.05;;
69386;SDS011;56575;48.942;8.404;2023-06-24T14:32:45;4.30;;;3.20;;
69386;SDS011;56575;48.942;8.404;2023-06-24T14:35:11;4.33;;;3.37;;
69386;SDS011;56575;48.942;8.404;2023-06-24T14:37:36;4.23;;;2.90;;
69386;SDS011;56575;48.942;8.404;2023-06-24T14:40:02;5.35;;;3.40;;
69386;SDS011;56575;48.942;8.404;2023-06-24T14:42:28;3.93;;;3.20;;
69386;SDS011;56575;48.942;8.404;2023-06-24T14:44:53;3.75;;;2.92;;
69386;SDS011;56575;48.942;8.404;2023-06-24T14:47:19;3.63;;;2.80;;
69386;SDS011;56575;48.942;8.404;2023-06-24T14:49:44;3.40;;;2.60;;
69386;SDS011;56575;48.942;8.404;2023-06-24T14:52:10;4.90;;;3.03;;
69386;SDS011;56575;48.942;8.404;2023-06-24T14:54:35;3.90;;;2.60;;
69386;SDS011;56575;48.942;8.404;2023-06-24T14:57:00;4.67;;;2.80;;
69386;SDS011;56575;48.942;8.404;2023-06-24T14:59:26;4.17;;;2.97;;
69386;SDS011;56575;48.942;8.404;2023-06-24T15:01:51;3.47;;;2.60;;
69386;SDS011;56575;48.942;8.404;2023-06-24T15:04:16;4.53;;;2.60;;
69386;SDS011;56575;48.942;8.404;2023-06-24T15:06:42;4.60;;;2.63;;
69386;SDS011;56575;48.942;8.404;2023-06-24T15:09:07;5.67;;;2.73;;
69386;SDS011;56575;48.942;8.404;2023-06-24T15:11:33;4.30;;;2.53;;
69386;SDS011;56575;48.942;8.404;2023-06-24T15:13:58;3.63;;;2.70;;